Grand Princess — ZCBU5 — position and weather

sailwx.info

Track history (hours):
 
Tides and Currents Weather Stations Pressure Air Temp Water Temp Dewpoint Dewpoint Depression Visibility Wind Speed Wind Dir Waves Ship Positions

Grand Princess

Operator: Princess Cruises

Last reported at 2018-Sep-25 22:30 UTC. Time now 2018-Sep-25 22:51 UTC.
Position N 46°11' W 123°51'.

Length 289.5 m; beam 36 m; draft 8.5 m.

Type: Ship. MMSI: 310327000.

Date/timePositionNaut miles runAvg speedWind from/ knotsBaromVisibWave heightAir tempDewpointWater temp
2018-Sep-25 22:30N 46°11' W 123°51'0 0.0
2018-Sep-25 22:03N 46°11' W 123°51'0 0.0
2018-Sep-25 22:00N 46°11' W 123°51'0 0.0
2018-Sep-25 21:30N 46°11' W 123°51'0 0.0
2018-Sep-25 21:00N 46°11' W 123°51'0 0.0
2018-Sep-25 20:29N 46°11' W 123°51'0 0.0
2018-Sep-25 20:02N 46°11' W 123°51'0 0.0
2018-Sep-25 19:59N 46°11' W 123°51'0 0.0
2018-Sep-25 19:26N 46°11' W 123°51'0 0.0
2018-Sep-25 18:56N 46°11' W 123°51'0 0.0
2018-Sep-25 18:29N 46°11' W 123°51'0 0.0
2018-Sep-25 18:01N 46°11' W 123°51'0 0.0
2018-Sep-25 17:55N 46°11' W 123°51'0 0.0
2018-Sep-25 17:07N 46°11' W 123°51'0 0.0
2018-Sep-25 16:58N 46°11' W 123°51'0 0.0
2018-Sep-25 16:28N 46°11' W 123°51'0 0.0
2018-Sep-25 16:03N 46°11' W 123°51'0 0.0
2018-Sep-25 16:00N 46°11' W 123°51'0 0.0
2018-Sep-25 15:27N 46°11' W 123°51'0 0.0
2018-Sep-25 15:03N 46°11' W 123°51'0 0.0
2018-Sep-25 15:00N 46°11' W 123°51'0 0.1
2018-Sep-25 14:03N 46°11' W 123°51'0 0.8
2018-Sep-25 14:00N 46°11' W 123°52'4 5.5
2018-Sep-25 13:21N 46°12' W 123°57'411.0
2018-Sep-25 13:00N 46°15' W 124°01'5 9.9
2018-Sep-25 12:30N 46°13' W 124°08'613.0
2018-Sep-25 12:03N 46°09' W 124°12'110.4
2018-Sep-25 12:00N 46°08' W 124°13'714.4
2018-Sep-25 11:30N 46°02' W 124°18'716.0
2018-Sep-25 11:03N 45°55' W 124°21'116.6
2018-Sep-25 11:01N 45°54' W 124°21'917.1
2018-Sep-25 10:30N 45°46' W 124°23'818.4
2018-Sep-25 10:03N 45°38' W 124°24'118.3
2018-Sep-25 10:00N 45°37' W 124°24'918.4
2018-Sep-25 09:30N 45°28' W 124°26'818.2
2018-Sep-25 09:03N 45°19' W 124°27'118.4
2018-Sep-25 09:00N 45°19' W 124°28'918.1
2018-Sep-25 08:30N 45°10' W 124°30'919.7
2018-Sep-25 08:03N 45°01' W 124°31'119.8
2018-Sep-25 08:00N 44°60' W 124°32'1019.6
2018-Sep-25 07:30N 44°50' W 124°33'1019.6
2018-Sep-25 06:59N 44°40' W 124°36'919.6
2018-Sep-25 06:30N 44°31' W 124°37'919.3
2018-Sep-25 06:03N 44°22' W 124°39'119.1
2018-Sep-25 06:00N 44°21' W 124°39'1019.5
2018-Sep-25 05:30N 44°12' W 124°41'919.3
2018-Sep-25 05:03N 44°03' W 124°43'919.6
2018-Sep-25 04:36N 43°54' W 124°44'219.6
2018-Sep-25 04:29N 43°52' W 124°44'1419.4
2018-Sep-25 03:45N 43°38' W 124°47'1817.8
2018-Sep-25 02:45N 43°20' W 124°50'417.0
2018-Sep-25 02:30N 43°16' W 124°51'2217.3
2018-Sep-25 01:14N 42°54' W 124°56'317.1
2018-Sep-25 01:03N 42°51' W 124°56'117.2
2018-Sep-25 01:00N 42°50' W 124°56'1422.6
2018-Sep-25 00:24N 42°37' W 124°57'1 2.9
2018-Sep-25 00:03N 42°36' W 124°57'114.3
2018-Sep-25 00:00N 42°35' W 124°57'714.0
2018-Sep-24 23:30N 42°28' W 124°57'613.9
2018-Sep-24 23:03N 42°22' W 124°57'114.0
2018-Sep-24 23:00N 42°21' W 124°57'9566.6
2018-Sep-24 23:00N 42°12' W 124°54'3 6.9 360 / 451014.010.8 14.4 5.012.0
2018-Sep-24 22:30N 42°14' W 124°57'613.4
2018-Sep-24 22:03N 42°08' W 124°58'18914.3
2018-Sep-24 08:52N 39°02' W 124°17'615.0
2018-Sep-24 08:30N 38°57' W 124°13'715.3
2018-Sep-24 08:03N 38°52' W 124°07'114.7
2018-Sep-24 08:00N 38°52' W 124°06'815.2
2018-Sep-24 07:30N 38°46' W 123°60'714.8
2018-Sep-24 07:03N 38°41' W 123°54'114.5
2018-Sep-24 07:00N 38°41' W 123°53'714.2
2018-Sep-24 06:30N 38°35' W 123°47'614.3
2018-Sep-24 06:03N 38°30' W 123°43'114.8
2018-Sep-24 06:00N 38°29' W 123°42'815.1
2018-Sep-24 05:30N 38°24' W 123°36'715.6
2018-Sep-24 05:03N 38°18' W 123°30'115.6
2018-Sep-24 05:00N 38°18' W 123°29'714.5
2018-Sep-24 04:30N 38°12' W 123°23'510.6
2018-Sep-24 04:03N 38°08' W 123°20'110.2
2018-Sep-24 04:00N 38°08' W 123°19'510.5
2018-Sep-24 03:30N 38°04' W 123°15'510.3
2018-Sep-24 03:03N 38°01' W 123°11'110.3
2018-Sep-24 02:59N 38°00' W 123°10'510.4
2018-Sep-24 02:30N 37°57' W 123°05'510.6
2018-Sep-24 02:03N 37°55' W 122°60'111.0
2018-Sep-24 02:00N 37°54' W 122°59'510.5
2018-Sep-24 01:30N 37°52' W 122°54'510.7
2018-Sep-24 01:03N 37°49' W 122°48'110.5
2018-Sep-24 01:00N 37°49' W 122°48'510.9
2018-Sep-24 00:30N 37°47' W 122°42'510.6
2018-Sep-24 00:03N 37°47' W 122°36'115.3
2018-Sep-24 00:00N 37°47' W 122°35'714.9
2018-Sep-23 23:30N 37°49' W 122°26'1 3.1
2018-Sep-23 23:02N 37°48' W 122°24'0 0.0
2018-Sep-23 22:59N 37°48' W 122°24'0 0.0
2018-Sep-23 22:28N 37°48' W 122°24'0 0.0
2018-Sep-23 22:01N 37°48' W 122°24'0 0.0
2018-Sep-23 21:58N 37°48' W 122°24'0 0.0
2018-Sep-23 21:28N 37°48' W 122°24'0 0.0
2018-Sep-23 21:01N 37°48' W 122°24'0 0.0
2018-Sep-23 20:58N 37°48' W 122°24'0 0.0
2018-Sep-23 20:30N 37°48' W 122°24'0 0.0
2018-Sep-23 20:03N 37°48' W 122°24'0 0.0
2018-Sep-23 20:00N 37°48' W 122°24'0 0.0
2018-Sep-23 19:30N 37°48' W 122°24'0 0.0
2018-Sep-23 19:03N 37°48' W 122°24'0 0.0
2018-Sep-23 19:00N 37°48' W 122°24'0 0.0
2018-Sep-23 18:27N 37°48' W 122°24'0 0.0
2018-Sep-23 17:59N 37°48' W 122°24'0 0.0
2018-Sep-23 17:29N 37°48' W 122°24'0 0.0
2018-Sep-23 17:02N 37°48' W 122°24'0 0.0
2018-Sep-23 16:59N 37°48' W 122°24'0 0.0
2018-Sep-23 16:29N 37°48' W 122°24'0 0.0
2018-Sep-23 16:02N 37°48' W 122°24'0 0.0
2018-Sep-23 15:59N 37°48' W 122°24'0 0.0
2018-Sep-23 15:28N 37°48' W 122°24'0 0.0
2018-Sep-23 15:01N 37°48' W 122°24'0 0.0
2018-Sep-23 14:58N 37°48' W 122°24'0 0.0
2018-Sep-23 13:58N 37°48' W 122°24'0 0.0
2018-Sep-23 13:30N 37°48' W 122°24'0 0.7
2018-Sep-23 13:03N 37°49' W 122°24'0 5.4
2018-Sep-23 13:00N 37°49' W 122°25'611.7
2018-Sep-23 12:30N 37°48' W 122°32'714.9
2018-Sep-23 12:03N 37°46' W 122°40'111.4
2018-Sep-23 12:00N 37°46' W 122°41'510.5
2018-Sep-23 11:30N 37°47' W 122°47'510.5
2018-Sep-23 11:03N 37°49' W 122°52'110.7
2018-Sep-23 11:00N 37°49' W 122°53'510.3
2018-Sep-23 10:30N 37°52' W 122°59'510.4
2018-Sep-23 10:03N 37°54' W 123°04'010.5
2018-Sep-23 10:00N 37°55' W 123°04'510.3
2018-Sep-23 09:30N 37°57' W 123°10'510.1
2018-Sep-23 09:03N 38°00' W 123°14'110.2
2018-Sep-23 09:00N 38°01' W 123°15'510.3
2018-Sep-23 08:30N 38°05' W 123°19'510.4
2018-Sep-23 08:03N 38°08' W 123°22'111.9
2018-Sep-23 08:00N 38°09' W 123°23'715.0
2018-Sep-23 07:31N 38°15' W 123°29'919.1
2018-Sep-23 07:04N 38°21' W 123°36'123.1
2018-Sep-23 07:00N 38°22' W 123°37'1122.4
2018-Sep-23 06:30N 38°31' W 123°46'1021.9
2018-Sep-23 06:02N 38°39' W 123°54'2921.6
2018-Sep-23 04:40N 39°02' W 124°18'39521.4
2018-Sep-22 10:14N 45°33' W 125°26'421.6
2018-Sep-22 10:03N 45°38' W 125°26'121.8
2018-Sep-22 10:00N 45°38' W 125°27'1121.4
2018-Sep-22 09:30N 45°49' W 125°27'1121.3
2018-Sep-22 08:59N 46°00' W 125°28'1121.3
2018-Sep-22 08:28N 46°11' W 125°28'921.6
2018-Sep-22 08:03N 46°20' W 125°30'121.6
2018-Sep-22 08:00N 46°21' W 125°30'1121.6
2018-Sep-22 07:30N 46°32' W 125°32'1121.7
2018-Sep-22 06:59N 46°43' W 125°33'1220.9
2018-Sep-22 06:24N 46°55' W 125°35'7421.0
2018-Sep-22 02:55N 48°08' W 125°43'819.8
2018-Sep-22 02:30N 48°16' W 125°41'920.6
2018-Sep-22 02:03N 48°22' W 125°30'120.2
2018-Sep-22 02:00N 48°22' W 125°28'5360.1
2018-Sep-22 02:00N 48°18' W 125°30'1428.7 160 / 251006.710.8 14.012.213.0
2018-Sep-22 01:30N 48°28' W 125°16'920.8
2018-Sep-22 01:03N 48°31' W 125°02'121.7
2018-Sep-22 01:00N 48°31' W 125°00'1121.7
2018-Sep-22 00:30N 48°30' W 124°44'1021.6
2018-Sep-22 00:03N 48°27' W 124°31'122.5
2018-Sep-22 00:00N 48°26' W 124°29'1121.6
2018-Sep-21 23:30N 48°22' W 124°14'1021.5
2018-Sep-21 23:03N 48°19' W 124°00'121.6
2018-Sep-21 23:00N 48°18' W 123°59'1919.2
2018-Sep-21 21:59N 48°16' W 123°30'713.6
2018-Sep-21 21:30N 48°22' W 123°25'3 7.1
2018-Sep-21 21:01N 48°25' W 123°24'0 0.0
2018-Sep-21 20:55N 48°25' W 123°24'0 0.0
2018-Sep-21 20:19N 48°25' W 123°24'0 0.0
2018-Sep-21 20:01N 48°25' W 123°24'0 0.0
2018-Sep-21 19:55N 48°25' W 123°24'0 0.0
2018-Sep-21 19:19N 48°25' W 123°24'0 0.0
2018-Sep-21 19:00N 48°25' W 123°24'0 0.0
2018-Sep-21 18:30N 48°25' W 123°24'0 0.0
2018-Sep-21 17:54N 48°25' W 123°24'0 0.0
2018-Sep-21 17:24N 48°25' W 123°24'0 0.0
2018-Sep-21 17:00N 48°25' W 123°24'0 0.0
2018-Sep-21 16:29N 48°25' W 123°24'0 0.0
2018-Sep-21 16:02N 48°25' W 123°24'0 0.0
2018-Sep-21 15:59N 48°25' W 123°24'0 0.0
2018-Sep-21 15:29N 48°25' W 123°24'0 0.0
2018-Sep-21 14:59N 48°25' W 123°24'0 0.0
2018-Sep-21 14:29N 48°25' W 123°24'2 1.8
2018-Sep-21 13:30N 48°23' W 123°24'4 9.2
2018-Sep-21 13:03N 48°19' W 123°25'113.1
2018-Sep-21 13:00N 48°19' W 123°25'1614.3
2018-Sep-21 11:52N 48°13' W 123°48'615.9
2018-Sep-21 11:29N 48°14' W 123°58'816.9
2018-Sep-21 11:01N 48°17' W 124°08'116.8
2018-Sep-21 10:59N 48°18' W 124°09'816.3
2018-Sep-21 10:30N 48°21' W 124°20'715.8
2018-Sep-21 10:03N 48°24' W 124°29'113.1
2018-Sep-21 10:00N 48°24' W 124°30'713.5
2018-Sep-21 09:30N 48°27' W 124°39'613.5
2018-Sep-21 09:03N 48°29' W 124°48'114.2
2018-Sep-21 09:00N 48°29' W 124°49'714.0
2018-Sep-21 08:30N 48°29' W 124°60'614.0
2018-Sep-21 08:04N 48°29' W 125°09'113.5
2018-Sep-21 08:00N 48°29' W 125°10'815.7
2018-Sep-21 07:30N 48°32' W 125°21'919.2
2018-Sep-21 07:03N 48°37' W 125°32'119.3
2018-Sep-21 07:00N 48°37' W 125°34'919.1
2018-Sep-21 06:30N 48°43' W 125°45'818.4
2018-Sep-21 06:03N 48°48' W 125°54'118.2
2018-Sep-21 06:00N 48°49' W 125°55'918.4
2018-Sep-21 05:31N 48°54' W 126°07'818.0
2018-Sep-21 05:03N 48°59' W 126°17'118.2
2018-Sep-21 05:00N 48°59' W 126°18'917.9
2018-Sep-21 04:30N 49°04' W 126°29'817.9
2018-Sep-21 04:03N 49°09' W 126°39'217.7
2018-Sep-21 03:58N 49°10' W 126°41'3115.8
2018-Sep-21 02:00N 49°30' W 127°18'6315.7 120 / 351011.7 2.2 12.0 7.915.0
2018-Sep-20 22:00N 50°12' W 128°30'1947.5 090 / 351013.310.8 11.6 9.815.0
2018-Sep-20 21:36N 50°27' W 128°48'219.1
2018-Sep-20 21:30N 50°28' W 128°49'1518.9
2018-Sep-20 20:41N 50°41' W 129°04'718.7
2018-Sep-20 20:18N 50°47' W 129°11'618.8
2018-Sep-20 19:59N 50°52' W 129°15'919.4
2018-Sep-20 19:30N 51°01' W 129°20'919.4
2018-Sep-20 19:03N 51°09' W 129°25'119.5
2018-Sep-20 19:00N 51°10' W 129°26'1019.2
2018-Sep-20 18:30N 51°19' W 129°31'919.6
2018-Sep-20 18:03N 51°27' W 129°36'119.5
2018-Sep-20 18:00N 51°28' W 129°36'1019.3
2018-Sep-20 17:30N 51°37' W 129°41'918.9
2018-Sep-20 17:03N 51°45' W 129°46'119.0
2018-Sep-20 17:00N 51°46' W 129°47'4715.5
2018-Sep-20 14:00N 52°30' W 130°12'5321.6 130 / 241016.310.8 13.011.114.0
2018-Sep-20 11:31N 53°20' W 130°44'116.5
2018-Sep-20 11:28N 53°21' W 130°44'817.1
2018-Sep-20 11:01N 53°28' W 130°48'017.2
2018-Sep-20 11:00N 53°28' W 130°48'917.6
2018-Sep-20 10:30N 53°37' W 130°51'818.0
2018-Sep-20 10:03N 53°45' W 130°54'118.4
2018-Sep-20 10:01N 53°46' W 130°54'917.8
2018-Sep-20 09:30N 53°55' W 130°57'817.7
2018-Sep-20 09:03N 54°02' W 130°59'117.4
2018-Sep-20 09:00N 54°03' W 130°60'917.4
2018-Sep-20 08:30N 54°12' W 131°02'817.2
2018-Sep-20 08:04N 54°19' W 131°06'117.1
2018-Sep-20 08:00N 54°20' W 131°07'917.1
2018-Sep-20 07:30N 54°28' W 131°13'817.1
2018-Sep-20 07:03N 54°35' W 131°17'117.2
2018-Sep-20 06:58N 54°36' W 131°17'817.7
2018-Sep-20 06:30N 54°44' W 131°10'817.0
2018-Sep-20 06:01N 54°52' W 131°07'017.3
2018-Sep-20 06:00N 54°52' W 131°07'80 5.3
2018-Sep-19 15:00N 55°54' W 132°36'15015.0 280 / 51018.410.8 12.0 1.412.0
2018-Sep-19 04:59N 58°04' W 134°54'12 0.5
2018-Sep-18 04:23N 58°09' W 135°15'3 9.3
2018-Sep-18 04:02N 58°11' W 135°21'1 9.3
2018-Sep-18 03:58N 58°11' W 135°22'5 9.6
2018-Sep-18 03:26N 58°13' W 135°30'410.0
2018-Sep-18 03:02N 58°15' W 135°37'0 9.9
2018-Sep-18 02:59N 58°16' W 135°38'5 9.8
2018-Sep-18 02:30N 58°18' W 135°45'4 9.4
2018-Sep-18 02:03N 58°19' W 135°53'0 9.8
2018-Sep-18 02:00N 58°19' W 135°54'510.0
2018-Sep-18 01:30N 58°24' W 135°59'510.4
2018-Sep-18 01:03N 58°28' W 136°02'116.4
2018-Sep-18 01:00N 58°29' W 136°03'917.5
2018-Sep-18 00:30N 58°37' W 136°05'817.8
2018-Sep-18 00:03N 58°43' W 136°15'117.8
2018-Sep-18 00:00N 58°44' W 136°16'9 1.4
2018-Sep-17 17:45N 58°50' W 136°30'617.5
2018-Sep-17 17:24N 58°46' W 136°20'617.3
2018-Sep-17 17:03N 58°41' W 136°12'117.4
2018-Sep-17 17:00N 58°41' W 136°11'816.8
2018-Sep-17 16:30N 58°33' W 136°04'715.6
2018-Sep-17 16:04N 58°27' W 136°00'112.7
2018-Sep-17 16:00N 58°26' W 135°59'5 9.9
2018-Sep-17 15:30N 58°21' W 135°57'4 9.0
2018-Sep-17 15:02N 58°19' W 135°51'010.0
2018-Sep-17 15:00N 58°19' W 135°50'5 9.3
2018-Sep-17 14:30N 58°17' W 135°42'6 9.4
2018-Sep-17 13:54N 58°16' W 135°31'4 9.3
2018-Sep-17 13:29N 58°14' W 135°25'4 9.5
2018-Sep-17 13:02N 58°13' W 135°17'0 8.8
2018-Sep-17 12:59N 58°12' W 135°17'75 3.6
2018-Sep-16 16:00N 57°12' W 133°54'   100 / 11014.710.8 7.0 4.7 8.0
Track history (hours):
 
Tides and Currents Weather Stations Pressure Air Temp Water Temp Dewpoint Dewpoint Depression Visibility Wind Speed Wind Dir Waves Ship Positions

Grand Princess

Operator: Princess Cruises

Last reported at 2018-Sep-25 22:30 UTC. Time now 2018-Sep-25 22:51 UTC.
Position N 46°11' W 123°51'.

Length 289.5 m; beam 36 m; draft 8.5 m.

Type: Ship. MMSI: 310327000.

Date/timePositionNaut miles runAvg speedWind from/ knotsBaromVisibWave heightAir tempDewpointWater temp
2018-Sep-25 22:30N 46°11' W 123°51'0 0.0
2018-Sep-25 22:03N 46°11' W 123°51'0 0.0
2018-Sep-25 22:00N 46°11' W 123°51'0 0.0
2018-Sep-25 21:30N 46°11' W 123°51'0 0.0
2018-Sep-25 21:00N 46°11' W 123°51'0 0.0
2018-Sep-25 20:29N 46°11' W 123°51'0 0.0
2018-Sep-25 20:02N 46°11' W 123°51'0 0.0
2018-Sep-25 19:59N 46°11' W 123°51'0 0.0
2018-Sep-25 19:26N 46°11' W 123°51'0 0.0
2018-Sep-25 18:56N 46°11' W 123°51'0 0.0
2018-Sep-25 18:29N 46°11' W 123°51'0 0.0
2018-Sep-25 18:01N 46°11' W 123°51'0 0.0
2018-Sep-25 17:55N 46°11' W 123°51'0 0.0
2018-Sep-25 17:07N 46°11' W 123°51'0 0.0
2018-Sep-25 16:58N 46°11' W 123°51'0 0.0
2018-Sep-25 16:28N 46°11' W 123°51'0 0.0
2018-Sep-25 16:03N 46°11' W 123°51'0 0.0
2018-Sep-25 16:00N 46°11' W 123°51'0 0.0
2018-Sep-25 15:27N 46°11' W 123°51'0 0.0
2018-Sep-25 15:03N 46°11' W 123°51'0 0.0
2018-Sep-25 15:00N 46°11' W 123°51'0 0.1
2018-Sep-25 14:03N 46°11' W 123°51'0 0.8
2018-Sep-25 14:00N 46°11' W 123°52'4 5.5
2018-Sep-25 13:21N 46°12' W 123°57'411.0
2018-Sep-25 13:00N 46°15' W 124°01'5 9.9
2018-Sep-25 12:30N 46°13' W 124°08'613.0
2018-Sep-25 12:03N 46°09' W 124°12'110.4
2018-Sep-25 12:00N 46°08' W 124°13'714.4
2018-Sep-25 11:30N 46°02' W 124°18'716.0
2018-Sep-25 11:03N 45°55' W 124°21'116.6
2018-Sep-25 11:01N 45°54' W 124°21'917.1
2018-Sep-25 10:30N 45°46' W 124°23'818.4
2018-Sep-25 10:03N 45°38' W 124°24'118.3
2018-Sep-25 10:00N 45°37' W 124°24'918.4
2018-Sep-25 09:30N 45°28' W 124°26'818.2
2018-Sep-25 09:03N 45°19' W 124°27'118.4
2018-Sep-25 09:00N 45°19' W 124°28'918.1
2018-Sep-25 08:30N 45°10' W 124°30'919.7
2018-Sep-25 08:03N 45°01' W 124°31'119.8
2018-Sep-25 08:00N 44°60' W 124°32'1019.6
2018-Sep-25 07:30N 44°50' W 124°33'1019.6
2018-Sep-25 06:59N 44°40' W 124°36'919.6
2018-Sep-25 06:30N 44°31' W 124°37'919.3
2018-Sep-25 06:03N 44°22' W 124°39'119.1
2018-Sep-25 06:00N 44°21' W 124°39'1019.5
2018-Sep-25 05:30N 44°12' W 124°41'919.3
2018-Sep-25 05:03N 44°03' W 124°43'919.6
2018-Sep-25 04:36N 43°54' W 124°44'219.6
2018-Sep-25 04:29N 43°52' W 124°44'1419.4
2018-Sep-25 03:45N 43°38' W 124°47'1817.8
2018-Sep-25 02:45N 43°20' W 124°50'417.0
2018-Sep-25 02:30N 43°16' W 124°51'2217.3
2018-Sep-25 01:14N 42°54' W 124°56'317.1
2018-Sep-25 01:03N 42°51' W 124°56'117.2
2018-Sep-25 01:00N 42°50' W 124°56'1422.6
2018-Sep-25 00:24N 42°37' W 124°57'1 2.9
2018-Sep-25 00:03N 42°36' W 124°57'114.3
2018-Sep-25 00:00N 42°35' W 124°57'714.0
2018-Sep-24 23:30N 42°28' W 124°57'613.9
2018-Sep-24 23:03N 42°22' W 124°57'114.0
2018-Sep-24 23:00N 42°21' W 124°57'9566.6
2018-Sep-24 23:00N 42°12' W 124°54'3 6.9 360 / 451014.010.8 14.4 5.012.0
2018-Sep-24 22:30N 42°14' W 124°57'613.4
2018-Sep-24 22:03N 42°08' W 124°58'18914.3
2018-Sep-24 08:52N 39°02' W 124°17'615.0
2018-Sep-24 08:30N 38°57' W 124°13'715.3
2018-Sep-24 08:03N 38°52' W 124°07'114.7
2018-Sep-24 08:00N 38°52' W 124°06'815.2
2018-Sep-24 07:30N 38°46' W 123°60'714.8
2018-Sep-24 07:03N 38°41' W 123°54'114.5
2018-Sep-24 07:00N 38°41' W 123°53'714.2
2018-Sep-24 06:30N 38°35' W 123°47'614.3
2018-Sep-24 06:03N 38°30' W 123°43'114.8
2018-Sep-24 06:00N 38°29' W 123°42'815.1
2018-Sep-24 05:30N 38°24' W 123°36'715.6
2018-Sep-24 05:03N 38°18' W 123°30'115.6
2018-Sep-24 05:00N 38°18' W 123°29'714.5
2018-Sep-24 04:30N 38°12' W 123°23'510.6
2018-Sep-24 04:03N 38°08' W 123°20'110.2
2018-Sep-24 04:00N 38°08' W 123°19'510.5
2018-Sep-24 03:30N 38°04' W 123°15'510.3
2018-Sep-24 03:03N 38°01' W 123°11'110.3
2018-Sep-24 02:59N 38°00' W 123°10'510.4
2018-Sep-24 02:30N 37°57' W 123°05'510.6
2018-Sep-24 02:03N 37°55' W 122°60'111.0
2018-Sep-24 02:00N 37°54' W 122°59'510.5
2018-Sep-24 01:30N 37°52' W 122°54'510.7
2018-Sep-24 01:03N 37°49' W 122°48'110.5
2018-Sep-24 01:00N 37°49' W 122°48'510.9
2018-Sep-24 00:30N 37°47' W 122°42'510.6
2018-Sep-24 00:03N 37°47' W 122°36'115.3
2018-Sep-24 00:00N 37°47' W 122°35'714.9
2018-Sep-23 23:30N 37°49' W 122°26'1 3.1
2018-Sep-23 23:02N 37°48' W 122°24'0 0.0
2018-Sep-23 22:59N 37°48' W 122°24'0 0.0
2018-Sep-23 22:28N 37°48' W 122°24'0 0.0
2018-Sep-23 22:01N 37°48' W 122°24'0 0.0
2018-Sep-23 21:58N 37°48' W 122°24'0 0.0
2018-Sep-23 21:28N 37°48' W 122°24'0 0.0
2018-Sep-23 21:01N 37°48' W 122°24'0 0.0
2018-Sep-23 20:58N 37°48' W 122°24'0 0.0
2018-Sep-23 20:30N 37°48' W 122°24'0 0.0
2018-Sep-23 20:03N 37°48' W 122°24'0 0.0
2018-Sep-23 20:00N 37°48' W 122°24'0 0.0
2018-Sep-23 19:30N 37°48' W 122°24'0 0.0
2018-Sep-23 19:03N 37°48' W 122°24'0 0.0
2018-Sep-23 19:00N 37°48' W 122°24'0 0.0
2018-Sep-23 18:27N 37°48' W 122°24'0 0.0
2018-Sep-23 17:59N 37°48' W 122°24'0 0.0
2018-Sep-23 17:29N 37°48' W 122°24'0 0.0
2018-Sep-23 17:02N 37°48' W 122°24'0 0.0
2018-Sep-23 16:59N 37°48' W 122°24'0 0.0
2018-Sep-23 16:29N 37°48' W 122°24'0 0.0
2018-Sep-23 16:02N 37°48' W 122°24'0 0.0
2018-Sep-23 15:59N 37°48' W 122°24'0 0.0
2018-Sep-23 15:28N 37°48' W 122°24'0 0.0
2018-Sep-23 15:01N 37°48' W 122°24'0 0.0
2018-Sep-23 14:58N 37°48' W 122°24'0 0.0
2018-Sep-23 13:58N 37°48' W 122°24'0 0.0
2018-Sep-23 13:30N 37°48' W 122°24'0 0.7
2018-Sep-23 13:03N 37°49' W 122°24'0 5.4
2018-Sep-23 13:00N 37°49' W 122°25'611.7
2018-Sep-23 12:30N 37°48' W 122°32'714.9
2018-Sep-23 12:03N 37°46' W 122°40'111.4
2018-Sep-23 12:00N 37°46' W 122°41'510.5
2018-Sep-23 11:30N 37°47' W 122°47'510.5
2018-Sep-23 11:03N 37°49' W 122°52'110.7
2018-Sep-23 11:00N 37°49' W 122°53'510.3
2018-Sep-23 10:30N 37°52' W 122°59'510.4
2018-Sep-23 10:03N 37°54' W 123°04'010.5
2018-Sep-23 10:00N 37°55' W 123°04'510.3
2018-Sep-23 09:30N 37°57' W 123°10'510.1
2018-Sep-23 09:03N 38°00' W 123°14'110.2
2018-Sep-23 09:00N 38°01' W 123°15'510.3
2018-Sep-23 08:30N 38°05' W 123°19'510.4
2018-Sep-23 08:03N 38°08' W 123°22'111.9
2018-Sep-23 08:00N 38°09' W 123°23'715.0
2018-Sep-23 07:31N 38°15' W 123°29'919.1
2018-Sep-23 07:04N 38°21' W 123°36'123.1
2018-Sep-23 07:00N 38°22' W 123°37'1122.4
2018-Sep-23 06:30N 38°31' W 123°46'1021.9
2018-Sep-23 06:02N 38°39' W 123°54'2921.6
2018-Sep-23 04:40N 39°02' W 124°18'39521.4
2018-Sep-22 10:14N 45°33' W 125°26'421.6
2018-Sep-22 10:03N 45°38' W 125°26'121.8
2018-Sep-22 10:00N 45°38' W 125°27'1121.4
2018-Sep-22 09:30N 45°49' W 125°27'1121.3
2018-Sep-22 08:59N 46°00' W 125°28'1121.3
2018-Sep-22 08:28N 46°11' W 125°28'921.6
2018-Sep-22 08:03N 46°20' W 125°30'121.6
2018-Sep-22 08:00N 46°21' W 125°30'1121.6
2018-Sep-22 07:30N 46°32' W 125°32'1121.7
2018-Sep-22 06:59N 46°43' W 125°33'1220.9
2018-Sep-22 06:24N 46°55' W 125°35'7421.0
2018-Sep-22 02:55N 48°08' W 125°43'819.8
2018-Sep-22 02:30N 48°16' W 125°41'920.6
2018-Sep-22 02:03N 48°22' W 125°30'120.2
2018-Sep-22 02:00N 48°22' W 125°28'5360.1
2018-Sep-22 02:00N 48°18' W 125°30'1428.7 160 / 251006.710.8 14.012.213.0
2018-Sep-22 01:30N 48°28' W 125°16'920.8
2018-Sep-22 01:03N 48°31' W 125°02'121.7
2018-Sep-22 01:00N 48°31' W 125°00'1121.7
2018-Sep-22 00:30N 48°30' W 124°44'1021.6
2018-Sep-22 00:03N 48°27' W 124°31'122.5
2018-Sep-22 00:00N 48°26' W 124°29'1121.6
2018-Sep-21 23:30N 48°22' W 124°14'1021.5
2018-Sep-21 23:03N 48°19' W 124°00'121.6
2018-Sep-21 23:00N 48°18' W 123°59'1919.2
2018-Sep-21 21:59N 48°16' W 123°30'713.6
2018-Sep-21 21:30N 48°22' W 123°25'3 7.1
2018-Sep-21 21:01N 48°25' W 123°24'0 0.0
2018-Sep-21 20:55N 48°25' W 123°24'0 0.0
2018-Sep-21 20:19N 48°25' W 123°24'0 0.0
2018-Sep-21 20:01N 48°25' W 123°24'0 0.0
2018-Sep-21 19:55N 48°25' W 123°24'0 0.0
2018-Sep-21 19:19N 48°25' W 123°24'0 0.0
2018-Sep-21 19:00N 48°25' W 123°24'0 0.0
2018-Sep-21 18:30N 48°25' W 123°24'0 0.0
2018-Sep-21 17:54N 48°25' W 123°24'0 0.0
2018-Sep-21 17:24N 48°25' W 123°24'0 0.0
2018-Sep-21 17:00N 48°25' W 123°24'0 0.0
2018-Sep-21 16:29N 48°25' W 123°24'0 0.0
2018-Sep-21 16:02N 48°25' W 123°24'0 0.0
2018-Sep-21 15:59N 48°25' W 123°24'0 0.0
2018-Sep-21 15:29N 48°25' W 123°24'0 0.0
2018-Sep-21 14:59N 48°25' W 123°24'0 0.0
2018-Sep-21 14:29N 48°25' W 123°24'2 1.8
2018-Sep-21 13:30N 48°23' W 123°24'4 9.2
2018-Sep-21 13:03N 48°19' W 123°25'113.1
2018-Sep-21 13:00N 48°19' W 123°25'1614.3
2018-Sep-21 11:52N 48°13' W 123°48'615.9
2018-Sep-21 11:29N 48°14' W 123°58'816.9
2018-Sep-21 11:01N 48°17' W 124°08'116.8
2018-Sep-21 10:59N 48°18' W 124°09'816.3
2018-Sep-21 10:30N 48°21' W 124°20'715.8
2018-Sep-21 10:03N 48°24' W 124°29'113.1
2018-Sep-21 10:00N 48°24' W 124°30'713.5
2018-Sep-21 09:30N 48°27' W 124°39'613.5
2018-Sep-21 09:03N 48°29' W 124°48'114.2
2018-Sep-21 09:00N 48°29' W 124°49'714.0
2018-Sep-21 08:30N 48°29' W 124°60'614.0
2018-Sep-21 08:04N 48°29' W 125°09'113.5
2018-Sep-21 08:00N 48°29' W 125°10'815.7
2018-Sep-21 07:30N 48°32' W 125°21'919.2
2018-Sep-21 07:03N 48°37' W 125°32'119.3
2018-Sep-21 07:00N 48°37' W 125°34'919.1
2018-Sep-21 06:30N 48°43' W 125°45'818.4
2018-Sep-21 06:03N 48°48' W 125°54'118.2
2018-Sep-21 06:00N 48°49' W 125°55'918.4
2018-Sep-21 05:31N 48°54' W 126°07'818.0
2018-Sep-21 05:03N 48°59' W 126°17'118.2
2018-Sep-21 05:00N 48°59' W 126°18'917.9
2018-Sep-21 04:30N 49°04' W 126°29'817.9
2018-Sep-21 04:03N 49°09' W 126°39'217.7
2018-Sep-21 03:58N 49°10' W 126°41'3115.8
2018-Sep-21 02:00N 49°30' W 127°18'6315.7 120 / 351011.7 2.2 12.0 7.915.0
2018-Sep-20 22:00N 50°12' W 128°30'1947.5 090 / 351013.310.8 11.6 9.815.0
2018-Sep-20 21:36N 50°27' W 128°48'219.1
2018-Sep-20 21:30N 50°28' W 128°49'1518.9
2018-Sep-20 20:41N 50°41' W 129°04'718.7
2018-Sep-20 20:18N 50°47' W 129°11'618.8
2018-Sep-20 19:59N 50°52' W 129°15'919.4
2018-Sep-20 19:30N 51°01' W 129°20'919.4
2018-Sep-20 19:03N 51°09' W 129°25'119.5
2018-Sep-20 19:00N 51°10' W 129°26'1019.2
2018-Sep-20 18:30N 51°19' W 129°31'919.6
2018-Sep-20 18:03N 51°27' W 129°36'119.5
2018-Sep-20 18:00N 51°28' W 129°36'1019.3
2018-Sep-20 17:30N 51°37' W 129°41'918.9
2018-Sep-20 17:03N 51°45' W 129°46'119.0
2018-Sep-20 17:00N 51°46' W 129°47'4715.5
2018-Sep-20 14:00N 52°30' W 130°12'5321.6 130 / 241016.310.8 13.011.114.0
2018-Sep-20 11:31N 53°20' W 130°44'116.5
2018-Sep-20 11:28N 53°21' W 130°44'817.1
2018-Sep-20 11:01N 53°28' W 130°48'017.2
2018-Sep-20 11:00N 53°28' W 130°48'917.6
2018-Sep-20 10:30N 53°37' W 130°51'818.0
2018-Sep-20 10:03N 53°45' W 130°54'118.4
2018-Sep-20 10:01N 53°46' W 130°54'917.8
2018-Sep-20 09:30N 53°55' W 130°57'817.7
2018-Sep-20 09:03N 54°02' W 130°59'117.4
2018-Sep-20 09:00N 54°03' W 130°60'917.4
2018-Sep-20 08:30N 54°12' W 131°02'817.2
2018-Sep-20 08:04N 54°19' W 131°06'117.1
2018-Sep-20 08:00N 54°20' W 131°07'917.1
2018-Sep-20 07:30N 54°28' W 131°13'817.1
2018-Sep-20 07:03N 54°35' W 131°17'117.2
2018-Sep-20 06:58N 54°36' W 131°17'817.7
2018-Sep-20 06:30N 54°44' W 131°10'817.0
2018-Sep-20 06:01N 54°52' W 131°07'017.3
2018-Sep-20 06:00N 54°52' W 131°07'80 5.3
2018-Sep-19 15:00N 55°54' W 132°36'15015.0 280 / 51018.410.8 12.0 1.412.0
2018-Sep-19 04:59N 58°04' W 134°54'12 0.5
2018-Sep-18 04:23N 58°09' W 135°15'3 9.3
2018-Sep-18 04:02N 58°11' W 135°21'1 9.3
2018-Sep-18 03:58N 58°11' W 135°22'5 9.6
2018-Sep-18 03:26N 58°13' W 135°30'410.0
2018-Sep-18 03:02N 58°15' W 135°37'0 9.9
2018-Sep-18 02:59N 58°16' W 135°38'5 9.8
2018-Sep-18 02:30N 58°18' W 135°45'4 9.4
2018-Sep-18 02:03N 58°19' W 135°53'0 9.8
2018-Sep-18 02:00N 58°19' W 135°54'510.0
2018-Sep-18 01:30N 58°24' W 135°59'510.4
2018-Sep-18 01:03N 58°28' W 136°02'116.4
2018-Sep-18 01:00N 58°29' W 136°03'917.5
2018-Sep-18 00:30N 58°37' W 136°05'817.8
2018-Sep-18 00:03N 58°43' W 136°15'117.8
2018-Sep-18 00:00N 58°44' W 136°16'9 1.4
2018-Sep-17 17:45N 58°50' W 136°30'617.5
2018-Sep-17 17:24N 58°46' W 136°20'617.3
2018-Sep-17 17:03N 58°41' W 136°12'117.4
2018-Sep-17 17:00N 58°41' W 136°11'816.8
2018-Sep-17 16:30N 58°33' W 136°04'715.6
2018-Sep-17 16:04N 58°27' W 136°00'112.7
2018-Sep-17 16:00N 58°26' W 135°59'5 9.9
2018-Sep-17 15:30N 58°21' W 135°57'4 9.0
2018-Sep-17 15:02N 58°19' W 135°51'010.0
2018-Sep-17 15:00N 58°19' W 135°50'5 9.3
2018-Sep-17 14:30N 58°17' W 135°42'6 9.4
2018-Sep-17 13:54N 58°16' W 135°31'4 9.3
2018-Sep-17 13:29N 58°14' W 135°25'4 9.5
2018-Sep-17 13:02N 58°13' W 135°17'0 8.8
2018-Sep-17 12:59N 58°12' W 135°17'75 3.6
2018-Sep-16 16:00N 57°12' W 133°54'   100 / 11014.710.8 7.0 4.7 8.0

Dump ship's entire track history